Darstellungsparameter: Aktuell verwendete Einstellungen:
Skalierung der Graphiken ... ?
xyx+y,   Skalierungsfaktor:      Skalierung: Modus: x, Faktor: 1
Darstellungszeitraum ... ?
Vom - - bis: - -   Zeitraum: 29.07.2014 - 29.07.2014
Min/Max/Avg-Anzeige ... ?
Zeige MMA aktuell
Zeige MMA Monat
Zeige MMA alles
Zeige --A aktuell
Zeige --A Monat
Zeige --A alles
Keine MMA-Anzeige
MMA:
Keine MMA-Graphiken
MMA-Basis: 29.07.2014 - 29.07.2014
Quicknavigation für Darstellung... ?
Tage:      1T, 2T, 3T, 5T -1T -2T -3T -5T +1T +2T +3T +5T
Wochen: 1W, 2W, 3W -1W -2W -3W +1W +2W +3W
Monate: 1M, 3M, 6M -1M -3M -6M +1M +3M +6M
Jahre:    1J, 3J, 5J, 10J -1J -3J -5J -10J +1J +3J +5J +10J
Nutze für die Darstellung ... ?
Originaldaten oder Mittelwerte auf ...
Stundenbasis Tagesbasis Wochenbasis
Monatsbasis Jahresbasis      Datenbasis: Original-Daten
Darstellen als:
Statistik (Auto) Statistik J:M      Darstellung:
Zur Graphik,    zurück zur Übersicht aller Sensoren.
 
Tabellarische Datenbersicht: ?
 
Sensor: Nr:Datum:Temp:Feuchte:Taupunkt:
Aussen-T/F 1 29-07-2014 00:00:00 19.6 C 89 % 17.74 C
2 29-07-2014 00:05:00 19.6 C 91 % 18.09 C
3 29-07-2014 00:10:00 19.4 C 92 % 18.07 C
4 29-07-2014 00:15:00 19.3 C 92 % 17.97 C
5 29-07-2014 00:20:00 19.3 C 93 % 18.14 C
6 29-07-2014 00:25:00 19.2 C 93 % 18.04 C
7 29-07-2014 00:30:00 19.1 C 94 % 18.11 C
8 29-07-2014 00:35:00 19 C 94 % 18.01 C
9 29-07-2014 00:40:00 18.9 C 94 % 17.91 C
10 29-07-2014 00:45:00 18.9 C 94 % 17.91 C
11 29-07-2014 00:50:00 18.8 C 95 % 17.98 C
12 29-07-2014 00:55:00 18.8 C 95 % 17.98 C
13 29-07-2014 01:00:00 18.7 C 95 % 17.88 C
14 29-07-2014 01:05:00 18.7 C 95 % 17.88 C
15 29-07-2014 01:10:00 18.6 C 95 % 17.78 C
16 29-07-2014 01:15:00 18.6 C 95 % 17.78 C
17 29-07-2014 01:20:00 18.5 C 95 % 17.68 C
18 29-07-2014 01:25:00 18.4 C 96 % 17.75 C
19 29-07-2014 01:30:00 18.4 C 96 % 17.75 C
20 29-07-2014 01:35:00 18.4 C 96 % 17.75 C
21 29-07-2014 01:40:00 18.3 C 96 % 17.65 C
22 29-07-2014 01:45:00 18.3 C 96 % 17.65 C
23 29-07-2014 01:50:00 18.4 C 96 % 17.75 C
24 29-07-2014 01:55:00 18.5 C 96 % 17.85 C
25 29-07-2014 02:00:00 18.6 C 96 % 17.95 C
Sensor: Nr:Datum:Temp:Feuchte:Taupunkt:
Aussen-T/F 26 29-07-2014 02:05:00 18.7 C 97 % 18.21 C
27 29-07-2014 02:10:00 18.7 C 96 % 18.05 C
28 29-07-2014 02:15:00 18.7 C 96 % 18.05 C
29 29-07-2014 02:20:00 18.7 C 96 % 18.05 C
30 29-07-2014 02:25:00 18.7 C 97 % 18.21 C
31 29-07-2014 02:30:00 18.7 C 97 % 18.21 C
32 29-07-2014 02:35:00 18.7 C 97 % 18.21 C
33 29-07-2014 02:40:00 18.7 C 97 % 18.21 C
34 29-07-2014 02:45:00 18.7 C 97 % 18.21 C
35 29-07-2014 02:50:00 18.7 C 97 % 18.21 C
36 29-07-2014 02:55:00 18.6 C 97 % 18.11 C
37 29-07-2014 03:00:00 18.6 C 97 % 18.11 C
38 29-07-2014 03:05:00 18.7 C 97 % 18.21 C
39 29-07-2014 03:10:00 18.6 C 97 % 18.11 C
40 29-07-2014 03:15:00 18.6 C 97 % 18.11 C
41 29-07-2014 03:20:00 18.7 C 97 % 18.21 C
42 29-07-2014 03:25:00 18.7 C 97 % 18.21 C
43 29-07-2014 03:30:00 18.7 C 97 % 18.21 C
44 29-07-2014 03:35:00 18.7 C 97 % 18.21 C
45 29-07-2014 03:40:00 18.7 C 97 % 18.21 C
46 29-07-2014 03:45:00 18.7 C 97 % 18.21 C
47 29-07-2014 03:50:00 18.7 C 97 % 18.21 C
48 29-07-2014 03:55:00 18.7 C 97 % 18.21 C
49 29-07-2014 04:00:00 18.7 C 97 % 18.21 C
50 29-07-2014 04:05:00 18.7 C 97 % 18.21 C
Sensor: Nr:Datum:Temp:Feuchte:Taupunkt:
Aussen-T/F 51 29-07-2014 04:10:00 18.7 C 97 % 18.21 C
52 29-07-2014 04:15:00 18.7 C 97 % 18.21 C
53 29-07-2014 04:20:00 18.7 C 97 % 18.21 C
54 29-07-2014 04:25:00 18.8 C 97 % 18.31 C
55 29-07-2014 04:30:00 18.8 C 97 % 18.31 C
56 29-07-2014 04:35:00 18.8 C 97 % 18.31 C
57 29-07-2014 04:40:00 18.8 C 97 % 18.31 C
58 29-07-2014 04:45:00 18.7 C 97 % 18.21 C
59 29-07-2014 04:50:00 18.7 C 97 % 18.21 C
60 29-07-2014 04:55:00 18.6 C 97 % 18.11 C
61 29-07-2014 05:00:00 18.5 C 97 % 18.01 C
62 29-07-2014 05:05:00 18.4 C 97 % 17.91 C
63 29-07-2014 05:10:00 18.3 C 97 % 17.82 C
64 29-07-2014 05:15:00 18.3 C 97 % 17.82 C
65 29-07-2014 05:20:00 18.2 C 97 % 17.72 C
66 29-07-2014 05:25:00 18.2 C 97 % 17.72 C
67 29-07-2014 05:30:00 18.2 C 97 % 17.72 C
68 29-07-2014 05:35:00 18.2 C 97 % 17.72 C
69 29-07-2014 05:40:00 18.2 C 97 % 17.72 C
70 29-07-2014 05:45:00 18.3 C 97 % 17.82 C
71 29-07-2014 05:50:00 18.3 C 97 % 17.82 C
72 29-07-2014 05:55:00 18.3 C 97 % 17.82 C
73 29-07-2014 06:00:00 18.3 C 97 % 17.82 C
74 29-07-2014 06:05:00 18.3 C 97 % 17.82 C
75 29-07-2014 06:10:00 18.3 C 97 % 17.82 C
Sensor: Nr:Datum:Temp:Feuchte:Taupunkt:
Aussen-T/F 76 29-07-2014 06:15:00 18.3 C 97 % 17.82 C
77 29-07-2014 06:20:00 18.3 C 97 % 17.82 C
78 29-07-2014 06:25:00 18.3 C 97 % 17.82 C
79 29-07-2014 06:30:00 18.3 C 97 % 17.82 C
80 29-07-2014 06:35:00 18.3 C 97 % 17.82 C
81 29-07-2014 06:40:00 18.4 C 97 % 17.91 C
82 29-07-2014 06:45:00 18.4 C 97 % 17.91 C
83 29-07-2014 06:50:00 18.4 C 97 % 17.91 C
84 29-07-2014 06:55:00 18.4 C 97 % 17.91 C
85 29-07-2014 07:00:00 18.4 C 98 % 18.08 C
86 29-07-2014 07:05:00 18.4 C 98 % 18.08 C
87 29-07-2014 07:10:00 18.5 C 98 % 18.18 C
88 29-07-2014 07:15:00 18.5 C 98 % 18.18 C
89 29-07-2014 07:20:00 18.5 C 98 % 18.18 C
90 29-07-2014 07:25:00 18.6 C 98 % 18.28 C
91 29-07-2014 07:30:00 18.6 C 98 % 18.28 C
92 29-07-2014 07:35:00 18.6 C 98 % 18.28 C
93 29-07-2014 07:40:00 18.6 C 98 % 18.28 C
94 29-07-2014 07:45:00 18.7 C 98 % 18.38 C
95 29-07-2014 07:50:00 18.7 C 98 % 18.38 C
96 29-07-2014 07:55:00 18.7 C 98 % 18.38 C
97 29-07-2014 08:00:00 18.7 C 98 % 18.38 C
98 29-07-2014 08:05:00 18.6 C 97 % 18.11 C
99 29-07-2014 08:10:00 18.7 C 97 % 18.21 C
100 29-07-2014 08:15:00 18.7 C 97 % 18.21 C
Sensor: Nr:Datum:Temp:Feuchte:Taupunkt:
Aussen-T/F 101 29-07-2014 08:20:00 18.6 C 97 % 18.11 C
102 29-07-2014 08:25:00 18.6 C 97 % 18.11 C
103 29-07-2014 08:30:00 18.7 C 97 % 18.21 C
104 29-07-2014 08:35:00 18.7 C 97 % 18.21 C
105 29-07-2014 08:40:00 18.7 C 97 % 18.21 C
106 29-07-2014 08:45:00 18.8 C 97 % 18.31 C
107 29-07-2014 08:50:00 18.8 C 98 % 18.48 C
108 29-07-2014 08:55:00 18.9 C 98 % 18.58 C
109 29-07-2014 09:00:00 18.9 C 97 % 18.41 C
110 29-07-2014 09:05:00 18.9 C 97 % 18.41 C
111 29-07-2014 09:10:00 18.9 C 97 % 18.41 C
112 29-07-2014 09:15:00 18.9 C 97 % 18.41 C
113 29-07-2014 09:20:00 18.9 C 97 % 18.41 C
114 29-07-2014 09:25:00 19.1 C 97 % 18.61 C
115 29-07-2014 09:30:00 19.1 C 97 % 18.61 C
116 29-07-2014 09:35:00 19.2 C 98 % 18.88 C
117 29-07-2014 09:40:00 19.2 C 98 % 18.88 C
118 29-07-2014 09:45:00 19.2 C 97 % 18.71 C
119 29-07-2014 09:50:00 19.2 C 97 % 18.71 C
120 29-07-2014 09:55:00 19.2 C 97 % 18.71 C
121 29-07-2014 10:00:00 19.2 C 97 % 18.71 C
122 29-07-2014 10:05:00 19.2 C 97 % 18.71 C
123 29-07-2014 10:10:00 19.3 C 97 % 18.81 C
124 29-07-2014 10:15:00 19.3 C 97 % 18.81 C
125 29-07-2014 10:20:00 19.4 C 97 % 18.91 C
Sensor: Nr:Datum:Temp:Feuchte:Taupunkt:
Aussen-T/F 126 29-07-2014 10:25:00 19.5 C 97 % 19.01 C
127 29-07-2014 10:30:00 19.6 C 98 % 19.28 C
128 29-07-2014 10:35:00 19.7 C 98 % 19.37 C
129 29-07-2014 10:40:00 19.7 C 98 % 19.37 C
130 29-07-2014 10:45:00 19.7 C 97 % 19.21 C
131 29-07-2014 10:50:00 19.7 C 97 % 19.21 C
132 29-07-2014 10:55:00 19.7 C 97 % 19.21 C
133 29-07-2014 11:00:00 19.8 C 97 % 19.31 C
134 29-07-2014 11:05:00 19.8 C 97 % 19.31 C
135 29-07-2014 11:10:00 19.7 C 97 % 19.21 C
136 29-07-2014 11:15:00 19.7 C 97 % 19.21 C
137 29-07-2014 11:20:00 19.6 C 97 % 19.11 C
138 29-07-2014 11:25:00 19.7 C 97 % 19.21 C
139 29-07-2014 11:30:00 19.7 C 97 % 19.21 C
140 29-07-2014 11:35:00 19.8 C 97 % 19.31 C
141 29-07-2014 11:40:00 19.9 C 98 % 19.57 C
142 29-07-2014 11:45:00 20 C 98 % 19.67 C
143 29-07-2014 11:50:00 20.1 C 98 % 19.77 C
144 29-07-2014 11:55:00 20.2 C 97 % 19.71 C
145 29-07-2014 12:00:00 20.2 C 97 % 19.71 C
146 29-07-2014 12:05:00 20.3 C 98 % 19.97 C
147 29-07-2014 12:10:00 20.3 C 97 % 19.81 C
148 29-07-2014 12:15:00 20.4 C 97 % 19.91 C
149 29-07-2014 12:20:00 20.6 C 97 % 20.11 C
150 29-07-2014 12:25:00 20.6 C 96 % 19.94 C
Sensor: Nr:Datum:Temp:Feuchte:Taupunkt:
Aussen-T/F 151 29-07-2014 12:30:00 20.8 C 95 % 19.97 C
152 29-07-2014 12:35:00 21.1 C 92 % 19.75 C
153 29-07-2014 12:40:00 21.4 C 93 % 20.22 C
154 29-07-2014 12:45:00 21.6 C 93 % 20.42 C
155 29-07-2014 12:50:00 21.7 C 93 % 20.52 C
156 29-07-2014 12:55:00 21.8 C 90 % 20.09 C
157 29-07-2014 13:00:00 21.8 C 92 % 20.44 C
158 29-07-2014 13:05:00 21.5 C 93 % 20.32 C
159 29-07-2014 13:10:00 21.3 C 94 % 20.29 C
160 29-07-2014 13:15:00 21.1 C 94 % 20.1 C
161 29-07-2014 13:20:00 21.1 C 95 % 20.27 C
162 29-07-2014 13:25:00 21.1 C 95 % 20.27 C
163 29-07-2014 13:30:00 21.1 C 95 % 20.27 C
164 29-07-2014 13:35:00 21.3 C 96 % 20.64 C
165 29-07-2014 13:40:00 21.3 C 96 % 20.64 C
166 29-07-2014 13:45:00 21.4 C 96 % 20.74 C
167 29-07-2014 13:50:00 21.4 C 96 % 20.74 C
168 29-07-2014 13:55:00 21.4 C 96 % 20.74 C
169 29-07-2014 14:00:00 21.3 C 95 % 20.47 C
170 29-07-2014 14:05:00 21.3 C 96 % 20.64 C
171 29-07-2014 14:10:00 21.2 C 96 % 20.54 C
172 29-07-2014 14:15:00 21.1 C 94 % 20.1 C
173 29-07-2014 14:20:00 20.9 C 93 % 19.72 C
174 29-07-2014 14:25:00 20.8 C 94 % 19.8 C
175 29-07-2014 14:30:00 20.7 C 93 % 19.53 C
Sensor: Nr:Datum:Temp:Feuchte:Taupunkt:
Aussen-T/F 176 29-07-2014 14:35:00 20.6 C 93 % 19.43 C
177 29-07-2014 14:40:00 20.6 C 94 % 19.6 C
178 29-07-2014 14:45:00 20.8 C 95 % 19.97 C
179 29-07-2014 14:50:00 21 C 95 % 20.17 C
180 29-07-2014 14:55:00 21.1 C 94 % 20.1 C
181 29-07-2014 15:00:00 21.4 C 94 % 20.39 C
182 29-07-2014 15:05:00 21.9 C 95 % 21.06 C
183 29-07-2014 15:10:00 22 C 92 % 20.64 C
184 29-07-2014 15:15:00 22.1 C 92 % 20.74 C
185 29-07-2014 15:20:00 21.9 C 91 % 20.36 C
186 29-07-2014 15:25:00 21.7 C 91 % 20.17 C
187 29-07-2014 15:30:00 21.6 C 92 % 20.24 C
188 29-07-2014 15:35:00 21.4 C 93 % 20.22 C
189 29-07-2014 15:40:00 21.3 C 93 % 20.12 C
190 29-07-2014 15:45:00 21.1 C 93 % 19.92 C
191 29-07-2014 15:50:00 20.9 C 94 % 19.9 C
192 29-07-2014 15:55:00 20.7 C 94 % 19.7 C
193 29-07-2014 16:00:00 20.6 C 95 % 19.77 C
194 29-07-2014 16:05:00 20.5 C 95 % 19.67 C
195 29-07-2014 16:10:00 20.4 C 95 % 19.57 C
196 29-07-2014 16:15:00 20.4 C 96 % 19.74 C
197 29-07-2014 16:20:00 20.4 C 96 % 19.74 C
198 29-07-2014 16:25:00 20.4 C 96 % 19.74 C
199 29-07-2014 16:30:00 20.5 C 96 % 19.84 C
200 29-07-2014 16:35:00 20.6 C 97 % 20.11 C
Sensor: Nr:Datum:Temp:Feuchte:Taupunkt:
Aussen-T/F 201 29-07-2014 16:40:00 20.8 C 97 % 20.31 C
202 29-07-2014 16:45:00 20.8 C 97 % 20.31 C
203 29-07-2014 16:50:00 21 C 97 % 20.51 C
204 29-07-2014 16:55:00 21.1 C 97 % 20.6 C
205 29-07-2014 17:00:00 21.2 C 97 % 20.7 C
206 29-07-2014 17:05:00 21.3 C 97 % 20.8 C
207 29-07-2014 17:10:00 21.4 C 97 % 20.9 C
208 29-07-2014 17:15:00 21.7 C 97 % 21.2 C
209 29-07-2014 17:20:00 21.9 C 97 % 21.4 C
210 29-07-2014 17:25:00 22.1 C 97 % 21.6 C
211 29-07-2014 17:30:00 22.5 C 97 % 22 C
212 29-07-2014 17:35:00 22.7 C 94 % 21.68 C
213 29-07-2014 17:40:00 22.9 C 93 % 21.71 C
214 29-07-2014 17:45:00 23 C 91 % 21.45 C
215 29-07-2014 17:50:00 23 C 92 % 21.63 C
216 29-07-2014 17:55:00 22.8 C 91 % 21.25 C
217 29-07-2014 18:00:00 22.8 C 91 % 21.25 C
218 29-07-2014 18:05:00 22.9 C 90 % 21.17 C
219 29-07-2014 18:10:00 22.9 C 91 % 21.35 C
220 29-07-2014 18:15:00 22.9 C 91 % 21.35 C
221 29-07-2014 18:20:00 23.1 C 92 % 21.73 C
222 29-07-2014 18:25:00 23.1 C 91 % 21.55 C
223 29-07-2014 18:30:00 23.1 C 91 % 21.55 C
224 29-07-2014 18:35:00 23.3 C 89 % 21.38 C
225 29-07-2014 18:40:00 23.4 C 90 % 21.66 C
Sensor: Nr:Datum:Temp:Feuchte:Taupunkt:
Aussen-T/F 226 29-07-2014 18:45:00 23.2 C 89 % 21.28 C
227 29-07-2014 18:50:00 22.9 C 91 % 21.35 C
228 29-07-2014 18:55:00 22.6 C 92 % 21.23 C
229 29-07-2014 19:00:00 22.3 C 93 % 21.11 C
230 29-07-2014 19:05:00 22.1 C 94 % 21.09 C
231 29-07-2014 19:10:00 21.9 C 94 % 20.89 C
232 29-07-2014 19:15:00 21.8 C 95 % 20.96 C
233 29-07-2014 19:20:00 21.8 C 95 % 20.96 C
234 29-07-2014 19:25:00 21.8 C 96 % 21.13 C
235 29-07-2014 19:30:00 21.7 C 95 % 20.86 C
236 29-07-2014 19:35:00 21.6 C 95 % 20.76 C
237 29-07-2014 19:40:00 21.4 C 95 % 20.57 C
238 29-07-2014 19:45:00 21.2 C 94 % 20.19 C
239 29-07-2014 19:50:00 20.8 C 94 % 19.8 C
240 29-07-2014 19:55:00 20.7 C 94 % 19.7 C
241 29-07-2014 20:00:00 20.7 C 95 % 19.87 C
242 29-07-2014 20:05:00 20.7 C 95 % 19.87 C
243 29-07-2014 20:10:00 20.7 C 96 % 20.04 C
244 29-07-2014 20:15:00 20.7 C 96 % 20.04 C
245 29-07-2014 20:20:00 20.6 C 96 % 19.94 C
246 29-07-2014 20:25:00 20.6 C 96 % 19.94 C
247 29-07-2014 20:30:00 20.6 C 96 % 19.94 C
248 29-07-2014 20:35:00 20.5 C 96 % 19.84 C
249 29-07-2014 20:40:00 20.5 C 97 % 20.01 C
250 29-07-2014 20:45:00 20.5 C 97 % 20.01 C
Sensor: Nr:Datum:Temp:Feuchte:Taupunkt:
Aussen-T/F 251 29-07-2014 20:50:00 20.5 C 97 % 20.01 C
252 29-07-2014 20:55:00 20.6 C 97 % 20.11 C
253 29-07-2014 21:00:00 20.6 C 97 % 20.11 C
254 29-07-2014 21:05:00 20.6 C 97 % 20.11 C
255 29-07-2014 21:10:00 20.4 C 96 % 19.74 C
256 29-07-2014 21:15:00 20.2 C 96 % 19.54 C
257 29-07-2014 21:20:00 20.1 C 96 % 19.44 C
258 29-07-2014 21:25:00 20 C 96 % 19.34 C
259 29-07-2014 21:30:00 19.9 C 96 % 19.24 C
260 29-07-2014 21:35:00 19.9 C 96 % 19.24 C
261 29-07-2014 21:40:00 19.8 C 96 % 19.14 C
262 29-07-2014 21:45:00 19.8 C 96 % 19.14 C
263 29-07-2014 21:50:00 19.8 C 96 % 19.14 C
264 29-07-2014 21:55:00 19.7 C 96 % 19.04 C
265 29-07-2014 22:00:00 19.7 C 96 % 19.04 C
266 29-07-2014 22:05:00 19.6 C 96 % 18.94 C
267 29-07-2014 22:10:00 19.5 C 97 % 19.01 C
268 29-07-2014 22:15:00 19.4 C 97 % 18.91 C
269 29-07-2014 22:20:00 19.4 C 97 % 18.91 C
270 29-07-2014 22:25:00 19.4 C 97 % 18.91 C
271 29-07-2014 22:30:00 19.4 C 97 % 18.91 C
272 29-07-2014 22:35:00 19.4 C 97 % 18.91 C
273 29-07-2014 22:40:00 19.4 C 97 % 18.91 C
274 29-07-2014 22:45:00 19.3 C 97 % 18.81 C
275 29-07-2014 22:50:00 19.3 C 97 % 18.81 C
Sensor: Nr:Datum:Temp:Feuchte:Taupunkt:
Aussen-T/F 276 29-07-2014 22:55:00 19.2 C 97 % 18.71 C
277 29-07-2014 23:00:00 19.2 C 97 % 18.71 C
278 29-07-2014 23:05:00 19.2 C 97 % 18.71 C
279 29-07-2014 23:10:00 19.1 C 97 % 18.61 C
280 29-07-2014 23:15:00 19 C 97 % 18.51 C
281 29-07-2014 23:20:00 18.9 C 97 % 18.41 C
282 29-07-2014 23:25:00 18.9 C 97 % 18.41 C
283 29-07-2014 23:30:00 18.9 C 97 % 18.41 C
284 29-07-2014 23:35:00 18.9 C 97 % 18.41 C
285 29-07-2014 23:40:00 18.8 C 97 % 18.31 C
286 29-07-2014 23:45:00 18.9 C 97 % 18.41 C
287 29-07-2014 23:50:00 18.9 C 97 % 18.41 C
288 29-07-2014 23:55:00 18.9 C 97 % 18.41 C

Legende:
   Min
   Max


Maximal/Minimal-Werte vom 29.07.2014 - 29.07.2014

Sensor Min Max Avg
Temp
(Aussen-T/F)
18.2 °C
29-07-2014  05:20:00
23.4 °C
29-07-2014  18:40:00
19.88 °C
Feuchte
(Aussen-T/F)
89 %
29-07-2014  00:00:00
98 %
29-07-2014  07:00:00
95.81 %
Taupunkt
(Aussen-T/F)
17.65 C
29-07-2014  01:40:00
22 C
29-07-2014  17:30:00
19.12 C

Die Daten stammen von einer Davis Vantage Pro 2 Wetter-Station und werden unter Linux mit der Software wview2wettercgi und aufbereitet. Alle Angaben erfolgen ohne Gewähr für ihre Vollständigkeit oder Richtigkeit.
Kontakt: Rainer Krienke krienke@uni-koblenz.de . Meine Webseiten an der Uni Koblenz oder privat.
Version: $Revision: 0.78 $